Portada
METAR-TAF:

METAR-TAF

Aeroports :

Saint-Louis, Senegal

latitud: 16-03N, longitud: 016-27W, altitud: 4 m

Observació

L'informe es va fer fa 1 hora i 0 minuts, a les 17:00 UTC
Vent 10 kt del Oest
Temperatura 26°C
Humitat 84%
Pressió 1012 hPa
Visibilitat 10 km o més
Núvols disperses a una alçada de 1300 ft
pluja,

METAR: GOSS 181700Z 28010KT 9999 -RA SCT013 26/23 Q1012

Hora: 18:00 (18:00 UTC)

Pronòstic

L'informe es va fer fa 7 hores i 0 minuts, a les 11:00 UTC
Pronòstic vàlid del 18 a les 12 UTC al 19 a les 12 UTC
Vent 10 kt del Nord-Oest
Visibilitat 10 km o més
Núvols disperses a una alçada de 1300 ft
Probabilitat 30% :
Temporalment
l' 18 a les 16 UTC al 18 a les 22 UTC
Visibilitat: 4000 m
Cel ennuvolat a una alçada de 1000 ft
Escasses núvols a una alçada de 3000 ft, Cumulonimbus.
tempesta, pluja,

TAF: GOSS 181100Z 1812/1912 32010KT 9999 SCT013 PROB30 TEMPO 1816/1822 4000 TSRA BKN010 FEW030CB

Observacions i pronòstics meteorològics de més de 4000 aeroports (METAR i TAF).

Les estacions disponibles són els punts grocs i vermells al mapa.

Posi el ratolí al punt desitjat per veure el nom de l'estació.

Feu clic per veure les observacions i els pronòstics meteorològics.

Per canviar el mapa: feu clic els botons verds amb una creu de color negre per apropar; al botó verd amb un guió per allunyar la imatge; o en les fletxes verdes per a mapes adjacents.


METAR-TAF: